createdAt,value
2023-01-18T00:01:06.812Z,100137.31
2023-01-18T00:03:37.120Z,100147.94
2023-01-18T00:06:07.893Z,100139.63
2023-01-18T00:08:37.925Z,100145.50
2023-01-18T00:11:08.894Z,100146.31
2023-01-18T00:13:37.675Z,100159.28
2023-01-18T00:16:11.776Z,100159.19
2023-01-18T00:18:40.717Z,100165.06
2023-01-18T00:21:11.366Z,100163.75
2023-01-18T00:23:40.189Z,100171.97
2023-01-18T00:26:11.298Z,100176.19
2023-01-18T00:28:40.572Z,100177.28
2023-01-18T00:31:18.356Z,100188.59
2023-01-18T00:33:49.026Z,100195.16
2023-01-18T00:36:18.526Z,100198.16
2023-01-18T00:38:53.637Z,100203.16
2023-01-18T00:41:23.160Z,100208.19
2023-01-18T00:43:52.549Z,100208.44
2023-01-18T00:46:24.221Z,100217.75
2023-01-18T00:48:53.595Z,100223.97
2023-01-18T00:51:24.827Z,100230.53
2023-01-18T00:53:53.498Z,100240.31
2023-01-18T00:56:23.735Z,100246.88
2023-01-18T00:58:52.096Z,100253.09
2023-01-18T01:01:20.674Z,100249.78
2023-01-18T01:04:07.146Z,100251.25
2023-01-18T01:06:46.219Z,100251.16
2023-01-18T01:09:28.363Z,100268.03
2023-01-18T01:12:17.828Z,100269.47
2023-01-18T01:15:06.808Z,100276.47
2023-01-18T01:17:56.362Z,100274.75
2023-01-18T01:20:44.705Z,100286.84
2023-01-18T01:23:42.423Z,100288.66
2023-01-18T01:26:12.677Z,100287.66
2023-01-18T01:28:47.153Z,100296.22
2023-01-18T01:31:17.369Z,100292.47
2023-01-18T01:33:47.021Z,100302.56
2023-01-18T01:36:17.641Z,100298.03
2023-01-18T01:38:46.473Z,100299.81
2023-01-18T01:41:27.884Z,100293.72
2023-01-18T01:43:58.749Z,100293.50
2023-01-18T01:46:35.532Z,100294.97
2023-01-18T01:49:14.946Z,100280.88
2023-01-18T01:51:54.954Z,100290.50
2023-01-18T01:54:39.972Z,100298.59
2023-01-18T01:57:13.623Z,100303.22
2023-01-18T01:59:47.124Z,100297.41
2023-01-18T02:02:15.545Z,100297.97
2023-01-18T02:04:45.170Z,100298.50
2023-01-18T02:07:14.477Z,100299.84
2023-01-18T02:09:42.919Z,100296.38
2023-01-18T02:12:11.337Z,100297.34
2023-01-18T02:14:40.068Z,100302.69
2023-01-18T02:17:33.678Z,100296.09
2023-01-18T02:20:25.156Z,100300.94
2023-01-18T02:23:32.903Z,100311.38
2023-01-18T02:26:25.373Z,100304.34
2023-01-18T02:29:15.097Z,100302.91
2023-01-18T02:31:58.608Z,100302.31
2023-01-18T02:34:31.875Z,100308.84
2023-01-18T02:37:09.303Z,100304.13
2023-01-18T02:39:46.231Z,100314.69
2023-01-18T02:42:42.013Z,100309.28
2023-01-18T02:45:59.387Z,100317.81
2023-01-18T02:48:50.845Z,100312.03
2023-01-18T02:51:19.139Z,100300.16
2023-01-18T02:53:49.163Z,100308.22
2023-01-18T02:56:30.791Z,100297.59
2023-01-18T02:59:06.347Z,100303.69
2023-01-18T03:01:42.087Z,100300.66
2023-01-18T03:04:19.398Z,100307.03
2023-01-18T03:06:54.814Z,100303.50
2023-01-18T03:09:27.993Z,100298.44
2023-01-18T03:11:59.795Z,100298.91
2023-01-18T03:14:53.936Z,100289.81
2023-01-18T03:17:42.714Z,100278.69
2023-01-18T03:20:14.096Z,100274.66
2023-01-18T03:23:21.923Z,100276.72
2023-01-18T03:25:55.010Z,100268.81
2023-01-18T03:28:50.495Z,100272.09
2023-01-18T03:31:58.082Z,100270.06
2023-01-18T03:34:35.273Z,100257.69
2023-01-18T03:37:09.391Z,100256.91
2023-01-18T03:39:41.262Z,100247.75
2023-01-18T03:42:18.020Z,100245.44
2023-01-18T03:45:04.757Z,100251.00
2023-01-18T03:47:33.652Z,100251.13
2023-01-18T03:50:02.482Z,100249.56
2023-01-18T03:52:43.552Z,100243.34
2023-01-18T03:55:34.260Z,100228.63
2023-01-18T03:58:10.392Z,100234.03
2023-01-18T04:00:40.517Z,100232.63
2023-01-18T04:03:09.086Z,100222.06
2023-01-18T04:05:37.827Z,100227.00
2023-01-18T04:08:06.421Z,100215.66
2023-01-18T04:10:34.736Z,100215.03
2023-01-18T04:13:03.057Z,100207.25
2023-01-18T04:15:31.370Z,100212.94
2023-01-18T04:17:59.653Z,100196.03
2023-01-18T04:20:28.010Z,100187.28
2023-01-18T04:22:56.768Z,100187.72
2023-01-18T04:25:25.376Z,100176.16
2023-01-18T04:27:53.653Z,100182.34
2023-01-18T04:30:22.087Z,100174.56
2023-01-18T04:32:50.570Z,100170.66
2023-01-18T04:35:18.893Z,100161.63
2023-01-18T04:37:52.989Z,100148.03
2023-01-18T04:40:21.310Z,100150.97
2023-01-18T04:42:56.310Z,100142.19
2023-01-18T04:45:25.718Z,100139.03
2023-01-18T04:47:54.017Z,100133.34
2023-01-18T04:50:22.360Z,100131.44
2023-01-18T04:52:50.774Z,100123.13
2023-01-18T04:55:19.156Z,100128.81
2023-01-18T04:57:47.751Z,100114.16
2023-01-18T05:00:16.701Z,100107.59
2023-01-18T05:02:45.028Z,100101.31
2023-01-18T05:05:13.320Z,100101.16
2023-01-18T05:07:41.617Z,100089.28
2023-01-18T05:10:10.870Z,100090.13
2023-01-18T05:12:39.164Z,100081.06
2023-01-18T05:15:08.621Z,100076.78
2023-01-18T05:17:37.049Z,100064.63
2023-01-18T05:20:09.704Z,100058.06
2023-01-18T05:22:38.342Z,100046.66
2023-01-18T05:25:07.936Z,100037.56
2023-01-18T05:27:36.316Z,100028.75
2023-01-18T05:30:06.678Z,100028.03
2023-01-18T05:32:36.174Z,100025.34
2023-01-18T05:35:05.828Z,100015.75
2023-01-18T05:37:34.199Z,100010.19
2023-01-18T05:40:02.595Z,100006.72
2023-01-18T05:42:31.067Z,99995.31
2023-01-18T05:44:59.450Z,99990.75
2023-01-18T05:47:28.235Z,99981.84
2023-01-18T05:49:58.769Z,99968.91
2023-01-18T05:52:27.080Z,99963.59
2023-01-18T05:54:55.368Z,99960.56
2023-01-18T05:57:23.700Z,99954.75
2023-01-18T05:59:52.004Z,99944.56
2023-01-18T06:02:20.377Z,99942.31
2023-01-18T06:04:49.064Z,99935.72
2023-01-18T06:07:17.806Z,99923.03
2023-01-18T06:09:46.150Z,99913.91
2023-01-18T06:12:14.464Z,99902.97
2023-01-18T06:14:42.788Z,99903.00
2023-01-18T06:17:11.113Z,99901.25
2023-01-18T06:19:39.471Z,99894.66
2023-01-18T06:22:07.810Z,99888.31
2023-01-18T06:24:36.133Z,99882.47
2023-01-18T06:27:05.183Z,99869.50
2023-01-18T06:29:33.543Z,99874.88
2023-01-18T06:32:01.866Z,99871.38
2023-01-18T06:34:30.483Z,99858.16
2023-01-18T06:36:58.903Z,99850.28
2023-01-18T06:39:27.426Z,99843.66
2023-01-18T06:41:55.761Z,99845.47
2023-01-18T06:44:24.292Z,99845.25
2023-01-18T06:46:53.039Z,99836.34
2023-01-18T06:49:21.618Z,99831.75
2023-01-18T06:51:49.932Z,99827.94
2023-01-18T06:54:18.271Z,99815.72
2023-01-18T06:56:46.576Z,99812.66
2023-01-18T06:59:15.160Z,99804.75
2023-01-18T07:01:43.721Z,99808.34
2023-01-18T07:04:12.129Z,99799.94
2023-01-18T07:06:40.460Z,99805.34
2023-01-18T07:09:10.303Z,99793.88
2023-01-18T07:11:38.653Z,99786.72
2023-01-18T07:14:06.982Z,99786.75
2023-01-18T07:16:35.539Z,99781.63
2023-01-18T07:19:04.969Z,99772.75
2023-01-18T07:21:33.712Z,99770.97
2023-01-18T07:24:02.541Z,99764.06
2023-01-18T07:26:30.840Z,99764.84
2023-01-18T07:28:59.165Z,99751.81
2023-01-18T07:31:28.446Z,99749.78
2023-01-18T07:33:57.046Z,99741.13
2023-01-18T07:36:25.440Z,99740.13
2023-01-18T07:38:53.743Z,99734.75
2023-01-18T07:41:24.068Z,99734.25
2023-01-18T07:43:53.207Z,99725.56
2023-01-18T07:46:21.684Z,99722.50
2023-01-18T07:48:50.044Z,99730.41
2023-01-18T07:51:18.484Z,99726.06
2023-01-18T07:53:47.094Z,99724.03
2023-01-18T07:56:19.339Z,99717.13
2023-01-18T07:58:47.957Z,99709.75
2023-01-18T08:01:20.076Z,99721.25
2023-01-18T08:03:50.278Z,99710.00
2023-01-18T08:06:25.803Z,99710.00
2023-01-18T08:08:56.677Z,99700.31
2023-01-18T08:11:25.398Z,99694.69
2023-01-18T08:13:53.857Z,99697.50
2023-01-18T08:16:22.259Z,99698.03
2023-01-18T08:18:51.420Z,99705.69
2023-01-18T08:21:20.073Z,99699.78
2023-01-18T08:23:48.415Z,99696.97
2023-01-18T08:26:16.924Z,99691.34
2023-01-18T08:28:45.807Z,99688.81
2023-01-18T08:31:20.772Z,99686.78
2023-01-18T08:33:50.911Z,99690.59
2023-01-18T08:36:24.606Z,99695.72
2023-01-18T08:39:00.294Z,99688.31
2023-01-18T08:41:30.187Z,99688.31
2023-01-18T08:44:00.168Z,99687.53
2023-01-18T08:46:28.588Z,99678.59
2023-01-18T08:49:00.301Z,99676.81
2023-01-18T08:51:28.889Z,99676.81
2023-01-18T08:53:58.108Z,99677.56
2023-01-18T08:56:27.030Z,99675.28
2023-01-18T08:58:55.501Z,99671.47
2023-01-18T09:01:24.891Z,99673.50
2023-01-18T09:03:58.632Z,99678.34
2023-01-18T09:06:27.539Z,99682.94
2023-01-18T09:08:55.854Z,99682.44
2023-01-18T09:11:24.149Z,99681.91
2023-01-18T09:14:01.027Z,99678.84
2023-01-18T09:16:31.688Z,99679.88
2023-01-18T09:19:00.863Z,99665.59
2023-01-18T09:21:29.562Z,99678.34
2023-01-18T09:23:58.850Z,99673.75
2023-01-18T09:26:28.809Z,99676.56
2023-01-18T09:28:57.588Z,99667.38
2023-01-18T09:31:28.336Z,99674.53
2023-01-18T09:34:17.384Z,99679.13
2023-01-18T09:36:46.819Z,99680.16
2023-01-18T09:39:15.290Z,99675.56
2023-01-18T09:41:48.317Z,99682.97
2023-01-18T09:44:41.771Z,99678.09
2023-01-18T09:47:18.633Z,99686.75
2023-01-18T09:50:03.339Z,99682.16
2023-01-18T09:52:43.447Z,99682.91
2023-01-18T09:55:23.425Z,99688.00
2023-01-18T09:58:00.380Z,99692.34
2023-01-18T10:00:36.447Z,99691.84
2023-01-18T10:03:14.502Z,99693.59
2023-01-18T10:06:09.791Z,99691.28
2023-01-18T10:08:56.504Z,99685.16
2023-01-18T10:11:32.421Z,99694.59
2023-01-18T10:14:09.879Z,99694.84
2023-01-18T10:16:39.060Z,99707.09
2023-01-18T10:19:21.325Z,99705.81
2023-01-18T10:21:55.240Z,99715.72
2023-01-18T10:24:30.224Z,99721.56
2023-01-18T10:27:29.310Z,99725.88
2023-01-18T10:30:29.872Z,99727.41
2023-01-18T10:33:01.486Z,99728.66
2023-01-18T10:35:38.207Z,99731.91
2023-01-18T10:38:13.188Z,99735.94
2023-01-18T10:40:43.725Z,99743.56
2023-01-18T10:43:21.402Z,99747.59
2023-01-18T10:45:49.810Z,99748.09
2023-01-18T10:48:21.167Z,99750.56
2023-01-18T10:50:56.292Z,99755.88
2023-01-18T10:53:35.056Z,99762.44
2023-01-18T10:56:17.982Z,99764.16
2023-01-18T10:58:52.422Z,99770.22
2023-01-18T11:01:54.248Z,99766.03
2023-01-18T11:04:28.224Z,99773.84
2023-01-18T11:07:00.125Z,99772.75
2023-01-18T11:09:52.605Z,99762.22
2023-01-18T11:12:43.929Z,99776.38
2023-01-18T11:15:15.284Z,99778.56
2023-01-18T11:17:58.929Z,99777.97
2023-01-18T11:20:37.570Z,99778.56
2023-01-18T11:23:08.372Z,99787.13
2023-01-18T11:25:40.653Z,99790.84
2023-01-18T11:28:22.985Z,99793.75
2023-01-18T11:31:09.012Z,99792.38
2023-01-18T11:33:49.109Z,99798.38
2023-01-18T11:36:20.292Z,99802.06
2023-01-18T11:38:49.427Z,99801.72
2023-01-18T11:41:21.550Z,99803.66
2023-01-18T11:44:20.303Z,99812.44
2023-01-18T11:47:04.897Z,99810.50
2023-01-18T11:49:52.987Z,99820.06
2023-01-18T11:52:43.317Z,99826.53
2023-01-18T11:55:58.827Z,99826.94
2023-01-18T11:58:31.241Z,99832.41
2023-01-18T12:01:14.513Z,99837.13
2023-01-18T12:04:01.377Z,99836.28
2023-01-18T12:06:50.783Z,99842.53
2023-01-18T12:09:55.092Z,99846.47
2023-01-18T12:12:41.709Z,99851.66
2023-01-18T12:15:25.483Z,99856.38
2023-01-18T12:18:14.045Z,99861.53
2023-01-18T12:20:54.644Z,99860.19
2023-01-18T12:24:13.070Z,99869.69
2023-01-18T12:26:56.542Z,99880.72
2023-01-18T12:29:27.485Z,99890.53
2023-01-18T12:32:16.940Z,99882.34
2023-01-18T12:35:10.115Z,99890.13
2023-01-18T12:38:18.490Z,99893.56
2023-01-18T12:40:54.429Z,99895.75
2023-01-18T12:43:31.665Z,99903.53
2023-01-18T12:46:00.003Z,99904.97
2023-01-18T12:48:52.195Z,99907.94
2023-01-18T12:51:25.609Z,99906.28
2023-01-18T12:54:02.864Z,99911.69
2023-01-18T12:56:37.065Z,99909.56
2023-01-18T12:59:16.827Z,99920.13
2023-01-18T13:01:55.919Z,99919.19
2023-01-18T13:04:32.631Z,99917.06
2023-01-18T13:07:08.132Z,99934.72
2023-01-18T13:09:41.463Z,99933.34
2023-01-18T13:12:10.668Z,99953.47
2023-01-18T13:15:17.170Z,99951.63
2023-01-18T13:18:22.659Z,99951.03
2023-01-18T13:20:59.161Z,99947.94
2023-01-18T13:23:54.839Z,99953.22
2023-01-18T13:26:28.511Z,99963.75
2023-01-18T13:29:24.042Z,99965.47
2023-01-18T13:31:53.844Z,99962.06
2023-01-18T13:34:29.747Z,99969.34
2023-01-18T13:37:13.357Z,99972.59
2023-01-18T13:39:49.082Z,99973.06
2023-01-18T13:42:23.488Z,99967.50
2023-01-18T13:45:19.429Z,99967.78
2023-01-18T13:47:51.132Z,99959.59
2023-01-18T13:50:40.775Z,99967.63
2023-01-18T13:53:15.101Z,99965.28
2023-01-18T13:55:53.826Z,99977.31
2023-01-18T13:58:34.191Z,99973.44
2023-01-18T14:01:05.546Z,99974.03
2023-01-18T14:03:45.075Z,99974.66
2023-01-18T14:06:37.106Z,99979.28
2023-01-18T14:09:16.024Z,99984.69
2023-01-18T14:11:53.995Z,99983.75
2023-01-18T14:14:22.357Z,99982.50
2023-01-18T14:17:18.502Z,99979.25
2023-01-18T14:19:49.945Z,99987.63
2023-01-18T14:23:00.292Z,99984.34
2023-01-18T14:25:38.941Z,99996.75
2023-01-18T14:28:19.757Z,99986.38
2023-01-18T14:30:49.652Z,99993.50
2023-01-18T14:33:40.324Z,99992.72
2023-01-18T14:36:09.658Z,99993.19
2023-01-18T14:38:38.160Z,99990.09
2023-01-18T14:41:09.351Z,100001.72
2023-01-18T14:43:47.842Z,99991.81
2023-01-18T14:46:22.663Z,99988.72
2023-01-18T14:48:54.658Z,99994.28
2023-01-18T14:51:29.199Z,99995.53
2023-01-18T14:54:01.503Z,100000.31
2023-01-18T14:56:41.048Z,99994.44
2023-01-18T14:59:31.949Z,99995.69
2023-01-18T15:02:23.568Z,100007.31
2023-01-18T15:04:52.115Z,100005.78
2023-01-18T15:07:35.115Z,100009.50
2023-01-18T15:10:04.485Z,100000.84
2023-01-18T15:12:34.267Z,100002.22
2023-01-18T15:15:17.187Z,99998.38
2023-01-18T15:17:45.678Z,99989.41
2023-01-18T15:20:16.601Z,100000.72
2023-01-18T15:22:45.343Z,99999.63
2023-01-18T15:25:33.421Z,99995.78
2023-01-18T15:28:18.563Z,99994.41
2023-01-18T15:30:55.607Z,100004.94
2023-01-18T15:33:26.359Z,100001.50
2023-01-18T15:36:02.051Z,100006.94
2023-01-18T15:38:30.760Z,100009.13
2023-01-18T15:41:06.336Z,100006.97
2023-01-18T15:43:37.531Z,100003.56
2023-01-18T15:46:11.625Z,100003.28
2023-01-18T15:49:00.125Z,100006.97
2023-01-18T15:51:47.650Z,100003.88
2023-01-18T15:54:22.475Z,100003.56
2023-01-18T15:56:50.945Z,100006.03
2023-01-18T15:59:23.518Z,99999.41
2023-01-18T16:02:09.903Z,99993.97
2023-01-18T16:04:38.747Z,100000.44
2023-01-18T16:07:45.526Z,100003.09
2023-01-18T16:10:20.511Z,100008.03
2023-01-18T16:12:49.456Z,100004.94
2023-01-18T16:15:29.733Z,99992.41
2023-01-18T16:18:01.424Z,99991.78
2023-01-18T16:20:32.853Z,99993.50
2023-01-18T16:23:17.520Z,99992.88
2023-01-18T16:25:53.295Z,99993.03
2023-01-18T16:28:25.779Z,99995.50
2023-01-18T16:30:55.667Z,99998.44
2023-01-18T16:33:24.756Z,99992.22
2023-01-18T16:35:53.056Z,99988.81
2023-01-18T16:38:21.575Z,99988.50
2023-01-18T16:40:51.608Z,99984.66
2023-01-18T16:43:19.899Z,99988.34
2023-01-18T16:45:51.255Z,99985.28
2023-01-18T16:48:22.224Z,99981.09
2023-01-18T16:50:51.397Z,99984.47
2023-01-18T16:53:20.323Z,99977.19
2023-01-18T16:55:49.218Z,99976.25
2023-01-18T16:58:19.825Z,99966.50
2023-01-18T17:01:06.753Z,99976.66
2023-01-18T17:03:36.984Z,99966.94
2023-01-18T17:06:05.428Z,99965.84
2023-01-18T17:08:34.483Z,99960.41
2023-01-18T17:11:02.814Z,99967.34
2023-01-18T17:13:31.298Z,99963.63
2023-01-18T17:15:59.635Z,99959.91
2023-01-18T17:18:28.836Z,99961.28
2023-01-18T17:20:57.421Z,99957.84
2023-01-18T17:23:28.773Z,99965.22
2023-01-18T17:25:57.097Z,99950.41
2023-01-18T17:28:27.588Z,99954.53
2023-01-18T17:30:56.103Z,99948.03
2023-01-18T17:33:26.471Z,99948.63
2023-01-18T17:35:56.017Z,99951.97
2023-01-18T17:38:27.962Z,99936.69
2023-01-18T17:40:58.357Z,99939.16
2023-01-18T17:43:33.784Z,99941.75
2023-01-18T17:46:07.186Z,99931.25
2023-01-18T17:48:35.555Z,99926.22
2023-01-18T17:51:07.636Z,99914.47
2023-01-18T17:53:38.123Z,99925.72
2023-01-18T17:56:15.942Z,99920.75
2023-01-18T17:58:50.979Z,99926.75
2023-01-18T18:01:20.152Z,99921.34
2023-01-18T18:03:51.173Z,99919.03
2023-01-18T18:06:31.614Z,99917.81
2023-01-18T18:09:04.671Z,99915.94
2023-01-18T18:11:33.026Z,99912.38
2023-01-18T18:14:02.382Z,99906.53
2023-01-18T18:16:32.729Z,99911.72
2023-01-18T18:19:01.267Z,99907.41
2023-01-18T18:21:30.065Z,99899.22
2023-01-18T18:23:58.404Z,99902.44
2023-01-18T18:26:26.958Z,99907.66
2023-01-18T18:28:55.231Z,99898.25
2023-01-18T18:31:23.743Z,99898.72
2023-01-18T18:33:52.040Z,99890.53
2023-01-18T18:36:20.503Z,99892.19
2023-01-18T18:38:48.766Z,99877.22
2023-01-18T18:41:17.686Z,99881.38
2023-01-18T18:43:45.966Z,99875.59
2023-01-18T18:46:14.955Z,99872.63
2023-01-18T18:48:43.647Z,99864.00
2023-01-18T18:51:12.223Z,99864.13
2023-01-18T18:53:40.726Z,99867.47
2023-01-18T18:56:12.826Z,99861.28
2023-01-18T18:58:41.738Z,99863.41
2023-01-18T19:01:26.646Z,99857.22
2023-01-18T19:03:56.206Z,99857.66
2023-01-18T19:06:26.082Z,99859.00
2023-01-18T19:08:54.459Z,99860.66
2023-01-18T19:11:22.876Z,99859.22
2023-01-18T19:13:51.280Z,99853.81
2023-01-18T19:16:19.822Z,99848.84
2023-01-18T19:18:48.516Z,99866.66
2023-01-18T19:21:16.853Z,99874.34
2023-01-18T19:23:45.218Z,99859.84
2023-01-18T19:26:13.884Z,99869.81
2023-01-18T19:28:43.005Z,99872.25
2023-01-18T19:31:12.705Z,99877.91
2023-01-18T19:33:41.133Z,99877.59
2023-01-18T19:36:15.331Z,99884.34
2023-01-18T19:38:48.033Z,99876.94
2023-01-18T19:41:19.461Z,99873.84
2023-01-18T19:43:51.215Z,99879.06
2023-01-18T19:46:21.049Z,99874.72
2023-01-18T19:48:57.590Z,99873.16
2023-01-18T19:51:26.299Z,99872.84
2023-01-18T19:53:55.381Z,99868.50
2023-01-18T19:56:25.963Z,99863.88
2023-01-18T19:58:54.340Z,99861.53
2023-01-18T20:01:35.133Z,99861.22
2023-01-18T20:04:06.969Z,99860.13
2023-01-18T20:06:38.411Z,99854.69
2023-01-18T20:09:18.576Z,99853.16
2023-01-18T20:11:48.869Z,99843.75
2023-01-18T20:14:19.315Z,99848.19
2023-01-18T20:16:48.056Z,99855.72
2023-01-18T20:19:18.260Z,99851.84
2023-01-18T20:21:47.168Z,99853.84
2023-01-18T20:24:15.497Z,99861.34
2023-01-18T20:26:44.041Z,99865.31
2023-01-18T20:29:12.488Z,99872.84
2023-01-18T20:31:43.092Z,99879.59
2023-01-18T20:34:13.019Z,99877.28
2023-01-18T20:36:41.556Z,99883.72
2023-01-18T20:39:10.858Z,99879.06
2023-01-18T20:41:39.217Z,99867.22
2023-01-18T20:44:09.055Z,99874.09
2023-01-18T20:46:37.629Z,99872.66
2023-01-18T20:49:06.059Z,99882.63
2023-01-18T20:51:34.713Z,99882.72
2023-01-18T20:54:03.172Z,99881.59
2023-01-18T20:56:32.895Z,99880.91
2023-01-18T20:59:01.227Z,99879.78
2023-01-18T21:01:35.726Z,99881.47
2023-01-18T21:04:06.835Z,99881.13
2023-01-18T21:06:35.185Z,99883.13
2023-01-18T21:09:04.024Z,99887.53
2023-01-18T21:11:32.781Z,99880.91
2023-01-18T21:14:01.149Z,99891.19
2023-01-18T21:16:29.682Z,99888.88
2023-01-18T21:18:59.905Z,99892.84
2023-01-18T21:21:30.157Z,99896.06
2023-01-18T21:23:58.780Z,99902.03
2023-01-18T21:26:27.256Z,99894.16
2023-01-18T21:28:56.434Z,99894.94
2023-01-18T21:31:25.165Z,99893.81
2023-01-18T21:33:55.467Z,99891.03
2023-01-18T21:36:24.132Z,99886.41
2023-01-18T21:38:52.481Z,99888.38
2023-01-18T21:41:39.737Z,99891.94
2023-01-18T21:44:26.471Z,99890.81
2023-01-18T21:46:54.855Z,99893.25
2023-01-18T21:52:48.821Z,99903.97
2023-01-18T21:55:17.893Z,99898.56
2023-01-18T21:57:46.743Z,99900.19
2023-01-18T22:00:15.427Z,99899.88
2023-01-18T22:02:43.975Z,99896.00
2023-01-18T22:05:12.324Z,99891.34
2023-01-18T22:07:40.614Z,99897.31
2023-01-18T22:10:09.436Z,99898.53
2023-01-18T22:12:39.815Z,99902.50
2023-01-18T22:15:08.469Z,99901.38
2023-01-18T22:17:36.792Z,99898.25
2023-01-18T22:20:05.509Z,99900.69
2023-01-18T22:22:33.961Z,99899.56
2023-01-18T22:25:03.126Z,99908.31
2023-01-18T22:27:31.575Z,99915.06
2023-01-18T22:30:00.328Z,99908.41
2023-01-18T22:32:28.924Z,99915.16
2023-01-18T22:34:57.412Z,99921.13
2023-01-18T22:37:26.773Z,99924.31
2023-01-18T22:39:55.120Z,99931.50
2023-01-18T22:42:23.445Z,99927.63
2023-01-18T22:44:51.725Z,99937.56
2023-01-18T22:47:20.384Z,99941.16
2023-01-18T22:49:48.708Z,99947.56
2023-01-18T22:52:17.139Z,99948.00
2023-01-18T22:54:45.421Z,99952.41
2023-01-18T22:57:13.802Z,99960.34
2023-01-18T22:59:42.184Z,99958.03
2023-01-18T23:02:10.462Z,99968.31
2023-01-18T23:04:38.807Z,99962.44
2023-01-18T23:07:07.126Z,99970.72
2023-01-18T23:09:35.466Z,99971.59
2023-01-18T23:12:03.771Z,99976.00
2023-01-18T23:14:50.455Z,99968.91
2023-01-18T23:17:36.951Z,99976.88
2023-01-18T23:20:07.162Z,99980.06
2023-01-18T23:22:35.537Z,99978.94
2023-01-18T23:25:04.609Z,99984.47
2023-01-18T23:27:32.924Z,99989.19
2023-01-18T23:30:01.497Z,99988.84
2023-01-18T23:32:31.391Z,99992.00
2023-01-18T23:35:00.740Z,100004.25
2023-01-18T23:37:29.369Z,100000.72
2023-01-18T23:40:16.079Z,99999.94
2023-01-18T23:43:03.138Z,100003.50
2023-01-18T23:45:49.760Z,100007.47
2023-01-18T23:48:40.236Z,100014.53
2023-01-18T23:51:27.944Z,100015.75
2023-01-18T23:54:14.823Z,100023.59
2023-01-18T23:56:44.271Z,100030.69
2023-01-18T23:59:14.689Z,100025.53
